sensor_id;sensor_type;location;lat;lon;timestamp;P1;durP1;ratioP1;P2;durP2;ratioP2
7142;SDS011;3613;48.902;9.204;2022-08-19T00:00:33;15.27;;;11.23;;
7142;SDS011;3613;48.902;9.204;2022-08-19T00:03:05;13.77;;;11.40;;
7142;SDS011;3613;48.902;9.204;2022-08-19T00:05:31;14.20;;;11.67;;
7142;SDS011;3613;48.902;9.204;2022-08-19T00:07:57;14.20;;;11.90;;
7142;SDS011;3613;48.902;9.204;2022-08-19T00:10:25;15.27;;;12.17;;
7142;SDS011;3613;48.902;9.204;2022-08-19T00:12:53;13.57;;;11.17;;
7142;SDS011;3613;48.902;9.204;2022-08-19T00:15:20;14.13;;;11.40;;
7142;SDS011;3613;48.902;9.204;2022-08-19T00:17:46;15.80;;;12.60;;
7142;SDS011;3613;48.902;9.204;2022-08-19T00:20:14;14.57;;;12.13;;
7142;SDS011;3613;48.902;9.204;2022-08-19T00:22:45;14.10;;;11.90;;
7142;SDS011;3613;48.902;9.204;2022-08-19T00:25:12;16.47;;;13.37;;
7142;SDS011;3613;48.902;9.204;2022-08-19T00:27:38;15.63;;;12.23;;
7142;SDS011;3613;48.902;9.204;2022-08-19T00:30:04;15.07;;;12.40;;
7142;SDS011;3613;48.902;9.204;2022-08-19T00:32:35;15.67;;;12.57;;
7142;SDS011;3613;48.902;9.204;2022-08-19T00:35:01;14.17;;;12.23;;
7142;SDS011;3613;48.902;9.204;2022-08-19T00:37:27;15.60;;;12.00;;
7142;SDS011;3613;48.902;9.204;2022-08-19T00:39:53;13.60;;;12.17;;
7142;SDS011;3613;48.902;9.204;2022-08-19T00:42:21;15.37;;;12.07;;
7142;SDS011;3613;48.902;9.204;2022-08-19T00:44:47;15.17;;;12.97;;
7142;SDS011;3613;48.902;9.204;2022-08-19T00:47:15;14.13;;;12.07;;
7142;SDS011;3613;48.902;9.204;2022-08-19T00:49:42;14.60;;;12.47;;
7142;SDS011;3613;48.902;9.204;2022-08-19T00:52:16;12.73;;;11.40;;
7142;SDS011;3613;48.902;9.204;2022-08-19T00:54:46;16.43;;;12.93;;
7142;SDS011;3613;48.902;9.204;2022-08-19T00:57:14;15.47;;;12.23;;
7142;SDS011;3613;48.902;9.204;2022-08-19T00:59:42;14.07;;;11.87;;
7142;SDS011;3613;48.902;9.204;2022-08-19T01:02:12;14.37;;;12.73;;
7142;SDS011;3613;48.902;9.204;2022-08-19T01:04:42;17.03;;;12.97;;
7142;SDS011;3613;48.902;9.204;2022-08-19T01:07:08;17.93;;;12.73;;
7142;SDS011;3613;48.902;9.204;2022-08-19T01:09:39;15.57;;;11.73;;
7142;SDS011;3613;48.902;9.204;2022-08-19T01:12:06;13.37;;;11.90;;
7142;SDS011;3613;48.902;9.204;2022-08-19T01:14:33;15.77;;;12.30;;
7142;SDS011;3613;48.902;9.204;2022-08-19T01:17:00;15.27;;;12.27;;
7142;SDS011;3613;48.902;9.204;2022-08-19T01:19:30;15.13;;;12.37;;
7142;SDS011;3613;48.902;9.204;2022-08-19T01:22:06;13.53;;;12.13;;
7142;SDS011;3613;48.902;9.204;2022-08-19T01:24:39;16.03;;;12.43;;
7142;SDS011;3613;48.902;9.204;2022-08-19T01:27:08;16.17;;;12.97;;
7142;SDS011;3613;48.902;9.204;2022-08-19T01:29:34;16.03;;;12.40;;
7142;SDS011;3613;48.902;9.204;2022-08-19T01:32:04;14.27;;;12.23;;
7142;SDS011;3613;48.902;9.204;2022-08-19T01:34:32;17.80;;;13.37;;
7142;SDS011;3613;48.902;9.204;2022-08-19T01:37:01;16.63;;;12.57;;
7142;SDS011;3613;48.902;9.204;2022-08-19T01:39:35;16.50;;;13.13;;
7142;SDS011;3613;48.902;9.204;2022-08-19T01:42:01;15.03;;;11.70;;
7142;SDS011;3613;48.902;9.204;2022-08-19T01:44:28;16.60;;;12.83;;
7142;SDS011;3613;48.902;9.204;2022-08-19T01:46:54;15.27;;;12.67;;
7142;SDS011;3613;48.902;9.204;2022-08-19T01:49:20;16.47;;;12.53;;
7142;SDS011;3613;48.902;9.204;2022-08-19T01:51:50;18.33;;;13.40;;
7142;SDS011;3613;48.902;9.204;2022-08-19T01:54:16;18.40;;;13.60;;
7142;SDS011;3613;48.902;9.204;2022-08-19T01:56:45;17.37;;;13.00;;
7142;SDS011;3613;48.902;9.204;2022-08-19T01:59:14;17.37;;;13.27;;
7142;SDS011;3613;48.902;9.204;2022-08-19T02:01:46;19.43;;;14.30;;
7142;SDS011;3613;48.902;9.204;2022-08-19T02:04:11;17.80;;;13.47;;
7142;SDS011;3613;48.902;9.204;2022-08-19T02:06:37;17.40;;;13.43;;
7142;SDS011;3613;48.902;9.204;2022-08-19T02:09:07;15.47;;;12.80;;
7142;SDS011;3613;48.902;9.204;2022-08-19T02:11:36;17.77;;;14.03;;
7142;SDS011;3613;48.902;9.204;2022-08-19T02:14:03;16.07;;;12.40;;
7142;SDS011;3613;48.902;9.204;2022-08-19T02:16:31;18.77;;;13.53;;
7142;SDS011;3613;48.902;9.204;2022-08-19T02:18:59;18.13;;;13.90;;
7142;SDS011;3613;48.902;9.204;2022-08-19T02:21:28;18.57;;;14.23;;
7142;SDS011;3613;48.902;9.204;2022-08-19T02:23:55;17.80;;;14.00;;
7142;SDS011;3613;48.902;9.204;2022-08-19T02:26:21;18.40;;;14.47;;
7142;SDS011;3613;48.902;9.204;2022-08-19T02:28:47;19.17;;;14.33;;
7142;SDS011;3613;48.902;9.204;2022-08-19T02:31:17;19.53;;;15.27;;
7142;SDS011;3613;48.902;9.204;2022-08-19T02:33:45;20.47;;;14.37;;
7142;SDS011;3613;48.902;9.204;2022-08-19T02:36:14;19.47;;;14.63;;
7142;SDS011;3613;48.902;9.204;2022-08-19T02:38:42;19.23;;;14.57;;
7142;SDS011;3613;48.902;9.204;2022-08-19T02:41:13;21.50;;;14.77;;
7142;SDS011;3613;48.902;9.204;2022-08-19T02:43:42;20.17;;;14.53;;
7142;SDS011;3613;48.902;9.204;2022-08-19T02:46:14;20.37;;;14.50;;
7142;SDS011;3613;48.902;9.204;2022-08-19T02:48:49;21.23;;;15.00;;
7142;SDS011;3613;48.902;9.204;2022-08-19T02:51:19;23.77;;;16.70;;
7142;SDS011;3613;48.902;9.204;2022-08-19T02:53:53;22.13;;;16.83;;
7142;SDS011;3613;48.902;9.204;2022-08-19T02:56:21;20.47;;;14.93;;
7142;SDS011;3613;48.902;9.204;2022-08-19T02:58:51;20.93;;;15.23;;
7142;SDS011;3613;48.902;9.204;2022-08-19T03:01:20;21.87;;;16.23;;
7142;SDS011;3613;48.902;9.204;2022-08-19T03:03:51;20.60;;;15.90;;
7142;SDS011;3613;48.902;9.204;2022-08-19T03:06:17;20.60;;;15.43;;
7142;SDS011;3613;48.902;9.204;2022-08-19T03:08:44;22.37;;;16.90;;
7142;SDS011;3613;48.902;9.204;2022-08-19T03:11:22;22.03;;;15.67;;
7142;SDS011;3613;48.902;9.204;2022-08-19T03:13:52;22.93;;;16.00;;
7142;SDS011;3613;48.902;9.204;2022-08-19T03:16:19;20.57;;;16.60;;
7142;SDS011;3613;48.902;9.204;2022-08-19T03:18:46;23.30;;;16.77;;
7142;SDS011;3613;48.902;9.204;2022-08-19T03:21:16;22.73;;;16.70;;
7142;SDS011;3613;48.902;9.204;2022-08-19T03:23:43;24.07;;;17.83;;
7142;SDS011;3613;48.902;9.204;2022-08-19T03:26:09;22.07;;;16.37;;
7142;SDS011;3613;48.902;9.204;2022-08-19T03:28:35;23.63;;;17.90;;
7142;SDS011;3613;48.902;9.204;2022-08-19T03:31:04;23.70;;;16.90;;
7142;SDS011;3613;48.902;9.204;2022-08-19T03:33:32;25.47;;;17.87;;
7142;SDS011;3613;48.902;9.204;2022-08-19T03:38:37;22.03;;;16.73;;
7142;SDS011;3613;48.902;9.204;2022-08-19T03:41:06;23.20;;;17.53;;
7142;SDS011;3613;48.902;9.204;2022-08-19T03:43:35;25.23;;;18.07;;
7142;SDS011;3613;48.902;9.204;2022-08-19T03:46:12;23.07;;;16.97;;
7142;SDS011;3613;48.902;9.204;2022-08-19T03:48:39;23.10;;;18.40;;
7142;SDS011;3613;48.902;9.204;2022-08-19T03:51:07;27.03;;;18.13;;
7142;SDS011;3613;48.902;9.204;2022-08-19T03:53:40;26.47;;;17.97;;
7142;SDS011;3613;48.902;9.204;2022-08-19T03:56:08;24.17;;;17.13;;
7142;SDS011;3613;48.902;9.204;2022-08-19T03:58:35;25.53;;;18.43;;
7142;SDS011;3613;48.902;9.204;2022-08-19T04:01:02;29.53;;;19.93;;
7142;SDS011;3613;48.902;9.204;2022-08-19T04:03:33;25.37;;;18.33;;
7142;SDS011;3613;48.902;9.204;2022-08-19T04:06:08;23.40;;;18.27;;
7142;SDS011;3613;48.902;9.204;2022-08-19T04:09:04;25.87;;;19.27;;
7142;SDS011;3613;48.902;9.204;2022-08-19T04:11:40;22.97;;;18.33;;
7142;SDS011;3613;48.902;9.204;2022-08-19T04:14:09;25.77;;;19.40;;
7142;SDS011;3613;48.902;9.204;2022-08-19T04:16:36;24.77;;;18.40;;
7142;SDS011;3613;48.902;9.204;2022-08-19T04:19:02;26.40;;;19.03;;
7142;SDS011;3613;48.902;9.204;2022-08-19T04:21:29;26.10;;;19.40;;
7142;SDS011;3613;48.902;9.204;2022-08-19T04:23:55;25.47;;;19.30;;
7142;SDS011;3613;48.902;9.204;2022-08-19T04:26:23;23.87;;;18.57;;
7142;SDS011;3613;48.902;9.204;2022-08-19T04:28:53;26.97;;;19.20;;
7142;SDS011;3613;48.902;9.204;2022-08-19T04:31:23;25.37;;;18.97;;
7142;SDS011;3613;48.902;9.204;2022-08-19T04:33:51;27.73;;;18.87;;
7142;SDS011;3613;48.902;9.204;2022-08-19T04:36:29;25.27;;;18.57;;
7142;SDS011;3613;48.902;9.204;2022-08-19T04:38:57;25.30;;;19.77;;
7142;SDS011;3613;48.902;9.204;2022-08-19T04:41:27;25.53;;;19.70;;
7142;SDS011;3613;48.902;9.204;2022-08-19T04:44:12;25.00;;;18.93;;
7142;SDS011;3613;48.902;9.204;2022-08-19T04:46:39;26.83;;;19.07;;
7142;SDS011;3613;48.902;9.204;2022-08-19T04:49:05;26.27;;;19.07;;
7142;SDS011;3613;48.902;9.204;2022-08-19T04:51:33;25.17;;;19.30;;
7142;SDS011;3613;48.902;9.204;2022-08-19T04:54:01;23.73;;;19.20;;
7142;SDS011;3613;48.902;9.204;2022-08-19T04:56:27;25.23;;;18.60;;
7142;SDS011;3613;48.902;9.204;2022-08-19T04:58:56;25.03;;;19.07;;
7142;SDS011;3613;48.902;9.204;2022-08-19T05:01:28;28.77;;;21.53;;
7142;SDS011;3613;48.902;9.204;2022-08-19T05:03:57;26.77;;;19.17;;
7142;SDS011;3613;48.902;9.204;2022-08-19T05:06:23;24.97;;;19.20;;
7142;SDS011;3613;48.902;9.204;2022-08-19T05:08:51;27.57;;;19.73;;
7142;SDS011;3613;48.902;9.204;2022-08-19T05:11:18;27.07;;;18.40;;
7142;SDS011;3613;48.902;9.204;2022-08-19T05:13:53;24.13;;;19.57;;
7142;SDS011;3613;48.902;9.204;2022-08-19T05:16:19;25.20;;;19.87;;
7142;SDS011;3613;48.902;9.204;2022-08-19T05:18:46;24.20;;;19.50;;
7142;SDS011;3613;48.902;9.204;2022-08-19T05:21:33;24.07;;;19.17;;
7142;SDS011;3613;48.902;9.204;2022-08-19T05:24:19;24.37;;;19.63;;
7142;SDS011;3613;48.902;9.204;2022-08-19T05:26:46;27.93;;;20.10;;
7142;SDS011;3613;48.902;9.204;2022-08-19T05:29:14;26.23;;;19.33;;
7142;SDS011;3613;48.902;9.204;2022-08-19T05:31:46;26.77;;;19.37;;
7142;SDS011;3613;48.902;9.204;2022-08-19T05:34:19;25.97;;;19.77;;
7142;SDS011;3613;48.902;9.204;2022-08-19T05:36:51;24.30;;;19.23;;
7142;SDS011;3613;48.902;9.204;2022-08-19T05:39:22;24.00;;;19.07;;
7142;SDS011;3613;48.902;9.204;2022-08-19T05:41:55;24.80;;;19.60;;
7142;SDS011;3613;48.902;9.204;2022-08-19T05:44:26;26.03;;;21.10;;
7142;SDS011;3613;48.902;9.204;2022-08-19T05:46:56;26.60;;;19.33;;
7142;SDS011;3613;48.902;9.204;2022-08-19T05:49:25;24.43;;;19.23;;
7142;SDS011;3613;48.902;9.204;2022-08-19T05:51:52;24.53;;;19.57;;
7142;SDS011;3613;48.902;9.204;2022-08-19T05:54:18;27.27;;;20.20;;
7142;SDS011;3613;48.902;9.204;2022-08-19T05:56:44;24.97;;;19.83;;
7142;SDS011;3613;48.902;9.204;2022-08-19T05:59:14;27.77;;;19.93;;
7142;SDS011;3613;48.902;9.204;2022-08-19T06:01:42;25.57;;;19.53;;
7142;SDS011;3613;48.902;9.204;2022-08-19T06:04:10;26.47;;;20.33;;
7142;SDS011;3613;48.902;9.204;2022-08-19T06:06:38;27.63;;;20.40;;
7142;SDS011;3613;48.902;9.204;2022-08-19T06:09:05;24.27;;;19.97;;
7142;SDS011;3613;48.902;9.204;2022-08-19T06:11:36;25.20;;;19.67;;
7142;SDS011;3613;48.902;9.204;2022-08-19T06:14:04;25.83;;;20.37;;
7142;SDS011;3613;48.902;9.204;2022-08-19T06:16:33;29.33;;;19.83;;
7142;SDS011;3613;48.902;9.204;2022-08-19T06:19:04;25.27;;;19.57;;
7142;SDS011;3613;48.902;9.204;2022-08-19T06:21:33;29.13;;;20.67;;
7142;SDS011;3613;48.902;9.204;2022-08-19T06:24:03;23.00;;;18.80;;
7142;SDS011;3613;48.902;9.204;2022-08-19T06:26:31;24.23;;;19.80;;
7142;SDS011;3613;48.902;9.204;2022-08-19T06:28:59;26.57;;;21.63;;
7142;SDS011;3613;48.902;9.204;2022-08-19T06:31:26;24.87;;;19.67;;
7142;SDS011;3613;48.902;9.204;2022-08-19T06:33:53;28.73;;;20.07;;
7142;SDS011;3613;48.902;9.204;2022-08-19T06:36:26;26.33;;;19.27;;
7142;SDS011;3613;48.902;9.204;2022-08-19T06:38:55;23.27;;;19.03;;
7142;SDS011;3613;48.902;9.204;2022-08-19T06:41:26;25.93;;;21.37;;
7142;SDS011;3613;48.902;9.204;2022-08-19T06:43:53;24.60;;;19.93;;
7142;SDS011;3613;48.902;9.204;2022-08-19T06:46:19;26.37;;;19.90;;
7142;SDS011;3613;48.902;9.204;2022-08-19T06:48:48;26.77;;;20.30;;
7142;SDS011;3613;48.902;9.204;2022-08-19T06:51:15;25.33;;;20.17;;
7142;SDS011;3613;48.902;9.204;2022-08-19T06:53:44;27.00;;;20.50;;
7142;SDS011;3613;48.902;9.204;2022-08-19T06:56:12;27.00;;;20.50;;
7142;SDS011;3613;48.902;9.204;2022-08-19T06:58:38;25.23;;;20.40;;
7142;SDS011;3613;48.902;9.204;2022-08-19T07:01:04;27.23;;;19.77;;
7142;SDS011;3613;48.902;9.204;2022-08-19T07:03:31;24.57;;;20.30;;
7142;SDS011;3613;48.902;9.204;2022-08-19T07:06:03;26.90;;;20.27;;
7142;SDS011;3613;48.902;9.204;2022-08-19T07:08:34;27.00;;;20.70;;
7142;SDS011;3613;48.902;9.204;2022-08-19T07:11:03;24.57;;;19.03;;
7142;SDS011;3613;48.902;9.204;2022-08-19T07:13:31;25.63;;;20.17;;
7142;SDS011;3613;48.902;9.204;2022-08-19T07:16:02;25.43;;;19.77;;
7142;SDS011;3613;48.902;9.204;2022-08-19T07:18:30;26.33;;;19.43;;
7142;SDS011;3613;48.902;9.204;2022-08-19T07:21:02;26.57;;;19.80;;
7142;SDS011;3613;48.902;9.204;2022-08-19T07:23:32;23.90;;;18.87;;
7142;SDS011;3613;48.902;9.204;2022-08-19T07:26:01;23.47;;;17.60;;
7142;SDS011;3613;48.902;9.204;2022-08-19T07:28:35;25.20;;;18.40;;
7142;SDS011;3613;48.902;9.204;2022-08-19T07:31:04;23.20;;;18.30;;
7142;SDS011;3613;48.902;9.204;2022-08-19T07:33:37;23.53;;;18.67;;
7142;SDS011;3613;48.902;9.204;2022-08-19T07:36:05;23.10;;;18.23;;
7142;SDS011;3613;48.902;9.204;2022-08-19T07:38:33;24.73;;;18.77;;
7142;SDS011;3613;48.902;9.204;2022-08-19T07:41:01;23.47;;;17.17;;
7142;SDS011;3613;48.902;9.204;2022-08-19T07:43:29;22.73;;;17.90;;
7142;SDS011;3613;48.902;9.204;2022-08-19T07:45:55;23.33;;;18.23;;
7142;SDS011;3613;48.902;9.204;2022-08-19T07:48:22;22.33;;;16.27;;
7142;SDS011;3613;48.902;9.204;2022-08-19T07:50:51;22.63;;;16.90;;
7142;SDS011;3613;48.902;9.204;2022-08-19T07:53:21;22.93;;;17.30;;
7142;SDS011;3613;48.902;9.204;2022-08-19T07:55:50;22.87;;;18.03;;
7142;SDS011;3613;48.902;9.204;2022-08-19T07:58:20;21.87;;;16.83;;
7142;SDS011;3613;48.902;9.204;2022-08-19T08:00:47;21.03;;;16.13;;
7142;SDS011;3613;48.902;9.204;2022-08-19T08:03:15;21.27;;;16.20;;
7142;SDS011;3613;48.902;9.204;2022-08-19T08:05:43;18.97;;;14.83;;
7142;SDS011;3613;48.902;9.204;2022-08-19T08:08:27;20.83;;;16.33;;
7142;SDS011;3613;48.902;9.204;2022-08-19T08:11:13;21.53;;;15.37;;
7142;SDS011;3613;48.902;9.204;2022-08-19T08:13:40;20.23;;;15.43;;
7142;SDS011;3613;48.902;9.204;2022-08-19T08:16:08;19.03;;;14.80;;
7142;SDS011;3613;48.902;9.204;2022-08-19T08:18:34;18.40;;;14.83;;
7142;SDS011;3613;48.902;9.204;2022-08-19T08:21:08;19.63;;;15.33;;
7142;SDS011;3613;48.902;9.204;2022-08-19T08:23:36;19.87;;;15.87;;
7142;SDS011;3613;48.902;9.204;2022-08-19T08:26:02;23.63;;;16.43;;
7142;SDS011;3613;48.902;9.204;2022-08-19T08:28:29;19.67;;;14.07;;
7142;SDS011;3613;48.902;9.204;2022-08-19T08:30:55;19.00;;;15.03;;
7142;SDS011;3613;48.902;9.204;2022-08-19T08:33:23;18.97;;;14.33;;
7142;SDS011;3613;48.902;9.204;2022-08-19T08:35:50;19.67;;;13.90;;
7142;SDS011;3613;48.902;9.204;2022-08-19T08:38:17;22.37;;;15.77;;
7142;SDS011;3613;48.902;9.204;2022-08-19T08:46:06;19.03;;;14.57;;
7142;SDS011;3613;48.902;9.204;2022-08-19T08:51:23;22.20;;;15.53;;
7142;SDS011;3613;48.902;9.204;2022-08-19T08:54:02;19.07;;;15.23;;
7142;SDS011;3613;48.902;9.204;2022-08-19T08:56:31;19.13;;;14.63;;
7142;SDS011;3613;48.902;9.204;2022-08-19T08:58:59;20.33;;;15.50;;
7142;SDS011;3613;48.902;9.204;2022-08-19T09:01:42;19.83;;;14.30;;
7142;SDS011;3613;48.902;9.204;2022-08-19T09:04:08;17.53;;;13.17;;
7142;SDS011;3613;48.902;9.204;2022-08-19T09:06:40;18.00;;;14.40;;
7142;SDS011;3613;48.902;9.204;2022-08-19T09:09:30;18.23;;;14.53;;
7142;SDS011;3613;48.902;9.204;2022-08-19T09:14:54;15.73;;;13.57;;
7142;SDS011;3613;48.902;9.204;2022-08-19T09:17:31;15.80;;;13.97;;
7142;SDS011;3613;48.902;9.204;2022-08-19T09:22:42;18.00;;;14.30;;
7142;SDS011;3613;48.902;9.204;2022-08-19T09:25:14;19.13;;;14.00;;
7142;SDS011;3613;48.902;9.204;2022-08-19T09:27:42;16.47;;;13.63;;
7142;SDS011;3613;48.902;9.204;2022-08-19T09:30:09;18.30;;;13.67;;
7142;SDS011;3613;48.902;9.204;2022-08-19T09:32:38;17.50;;;13.63;;
7142;SDS011;3613;48.902;9.204;2022-08-19T09:35:07;17.23;;;13.50;;
7142;SDS011;3613;48.902;9.204;2022-08-19T09:37:33;18.07;;;14.80;;
7142;SDS011;3613;48.902;9.204;2022-08-19T09:39:59;19.60;;;13.60;;
7142;SDS011;3613;48.902;9.204;2022-08-19T09:42:27;14.87;;;12.70;;
7142;SDS011;3613;48.902;9.204;2022-08-19T09:44:55;17.20;;;12.97;;
7142;SDS011;3613;48.902;9.204;2022-08-19T09:47:20;13.80;;;12.30;;
7142;SDS011;3613;48.902;9.204;2022-08-19T09:49:46;18.93;;;12.90;;
7142;SDS011;3613;48.902;9.204;2022-08-19T09:52:13;17.70;;;12.80;;
7142;SDS011;3613;48.902;9.204;2022-08-19T09:54:40;15.50;;;12.73;;
7142;SDS011;3613;48.902;9.204;2022-08-19T09:57:09;17.97;;;13.10;;
7142;SDS011;3613;48.902;9.204;2022-08-19T09:59:34;17.87;;;13.77;;
7142;SDS011;3613;48.902;9.204;2022-08-19T10:02:00;17.87;;;12.27;;
7142;SDS011;3613;48.902;9.204;2022-08-19T10:04:27;14.83;;;11.77;;
7142;SDS011;3613;48.902;9.204;2022-08-19T10:07:13;18.23;;;11.93;;
7142;SDS011;3613;48.902;9.204;2022-08-19T10:09:39;16.47;;;12.87;;
7142;SDS011;3613;48.902;9.204;2022-08-19T10:12:06;15.50;;;12.70;;
7142;SDS011;3613;48.902;9.204;2022-08-19T10:14:34;15.00;;;12.70;;
7142;SDS011;3613;48.902;9.204;2022-08-19T10:17:00;16.70;;;12.83;;
7142;SDS011;3613;48.902;9.204;2022-08-19T10:19:27;15.90;;;11.40;;
7142;SDS011;3613;48.902;9.204;2022-08-19T10:21:57;15.03;;;12.17;;
7142;SDS011;3613;48.902;9.204;2022-08-19T10:24:25;12.87;;;11.00;;
7142;SDS011;3613;48.902;9.204;2022-08-19T10:26:52;17.97;;;11.73;;
7142;SDS011;3613;48.902;9.204;2022-08-19T10:29:18;15.70;;;11.97;;
7142;SDS011;3613;48.902;9.204;2022-08-19T10:31:43;13.20;;;11.00;;
7142;SDS011;3613;48.902;9.204;2022-08-19T10:34:09;13.13;;;11.53;;
7142;SDS011;3613;48.902;9.204;2022-08-19T10:36:38;15.90;;;12.40;;
7142;SDS011;3613;48.902;9.204;2022-08-19T10:39:05;14.43;;;10.33;;
7142;SDS011;3613;48.902;9.204;2022-08-19T10:41:34;15.17;;;10.70;;
7142;SDS011;3613;48.902;9.204;2022-08-19T10:44:09;14.50;;;9.93;;
7142;SDS011;3613;48.902;9.204;2022-08-19T10:46:37;10.43;;;9.43;;
7142;SDS011;3613;48.902;9.204;2022-08-19T10:49:05;12.90;;;10.43;;
7142;SDS011;3613;48.902;9.204;2022-08-19T10:51:31;12.83;;;9.27;;
7142;SDS011;3613;48.902;9.204;2022-08-19T10:54:16;10.20;;;8.40;;
7142;SDS011;3613;48.902;9.204;2022-08-19T10:56:45;13.27;;;8.13;;
7142;SDS011;3613;48.902;9.204;2022-08-19T10:59:21;7.67;;;6.67;;
7142;SDS011;3613;48.902;9.204;2022-08-19T11:01:49;7.63;;;6.83;;
7142;SDS011;3613;48.902;9.204;2022-08-19T11:04:16;7.70;;;6.20;;
7142;SDS011;3613;48.902;9.204;2022-08-19T11:06:44;11.57;;;6.73;;
7142;SDS011;3613;48.902;9.204;2022-08-19T11:09:12;8.93;;;7.10;;
7142;SDS011;3613;48.902;9.204;2022-08-19T11:11:41;7.43;;;6.63;;
7142;SDS011;3613;48.902;9.204;2022-08-19T11:14:09;7.30;;;6.63;;
7142;SDS011;3613;48.902;9.204;2022-08-19T11:16:38;8.23;;;7.40;;
7142;SDS011;3613;48.902;9.204;2022-08-19T11:19:05;14.17;;;7.70;;
7142;SDS011;3613;48.902;9.204;2022-08-19T11:21:39;8.73;;;7.30;;
7142;SDS011;3613;48.902;9.204;2022-08-19T11:24:07;9.67;;;7.43;;
7142;SDS011;3613;48.902;9.204;2022-08-19T11:26:40;8.63;;;7.40;;
7142;SDS011;3613;48.902;9.204;2022-08-19T11:29:07;8.27;;;6.73;;
7142;SDS011;3613;48.902;9.204;2022-08-19T11:31:39;10.63;;;8.23;;
7142;SDS011;3613;48.902;9.204;2022-08-19T11:34:10;9.00;;;7.37;;
7142;SDS011;3613;48.902;9.204;2022-08-19T11:36:38;9.33;;;7.97;;
7142;SDS011;3613;48.902;9.204;2022-08-19T11:39:06;8.50;;;7.30;;
7142;SDS011;3613;48.902;9.204;2022-08-19T11:41:37;8.70;;;7.80;;
7142;SDS011;3613;48.902;9.204;2022-08-19T11:44:03;10.53;;;7.63;;
7142;SDS011;3613;48.902;9.204;2022-08-19T11:46:30;8.97;;;8.07;;
7142;SDS011;3613;48.902;9.204;2022-08-19T11:48:59;10.10;;;8.73;;
7142;SDS011;3613;48.902;9.204;2022-08-19T11:51:26;12.47;;;8.67;;
7142;SDS011;3613;48.902;9.204;2022-08-19T11:53:53;10.60;;;8.90;;
7142;SDS011;3613;48.902;9.204;2022-08-19T11:56:20;11.30;;;8.50;;
7142;SDS011;3613;48.902;9.204;2022-08-19T11:58:50;10.70;;;8.90;;
7142;SDS011;3613;48.902;9.204;2022-08-19T12:01:17;12.10;;;9.23;;
7142;SDS011;3613;48.902;9.204;2022-08-19T12:03:45;10.67;;;8.63;;
7142;SDS011;3613;48.902;9.204;2022-08-19T12:06:13;12.20;;;9.63;;
7142;SDS011;3613;48.902;9.204;2022-08-19T12:08:43;10.40;;;9.27;;
7142;SDS011;3613;48.902;9.204;2022-08-19T12:11:09;10.60;;;8.60;;
7142;SDS011;3613;48.902;9.204;2022-08-19T12:13:37;8.77;;;7.87;;
7142;SDS011;3613;48.902;9.204;2022-08-19T12:16:16;9.83;;;8.83;;
7142;SDS011;3613;48.902;9.204;2022-08-19T12:18:50;9.83;;;7.93;;
7142;SDS011;3613;48.902;9.204;2022-08-19T12:21:19;11.03;;;7.23;;
7142;SDS011;3613;48.902;9.204;2022-08-19T12:23:48;9.03;;;7.70;;
7142;SDS011;3613;48.902;9.204;2022-08-19T12:26:18;10.67;;;8.13;;
7142;SDS011;3613;48.902;9.204;2022-08-19T12:28:44;11.10;;;8.03;;
7142;SDS011;3613;48.902;9.204;2022-08-19T12:31:10;8.80;;;8.00;;
7142;SDS011;3613;48.902;9.204;2022-08-19T12:33:37;10.87;;;7.90;;
7142;SDS011;3613;48.902;9.204;2022-08-19T12:36:04;10.97;;;9.13;;
7142;SDS011;3613;48.902;9.204;2022-08-19T12:38:35;11.53;;;8.20;;
7142;SDS011;3613;48.902;9.204;2022-08-19T12:41:02;9.70;;;8.70;;
7142;SDS011;3613;48.902;9.204;2022-08-19T12:43:34;8.73;;;7.20;;
7142;SDS011;3613;48.902;9.204;2022-08-19T12:46:03;8.73;;;7.73;;
7142;SDS011;3613;48.902;9.204;2022-08-19T12:48:30;10.00;;;8.37;;
7142;SDS011;3613;48.902;9.204;2022-08-19T12:50:59;10.40;;;7.63;;
7142;SDS011;3613;48.902;9.204;2022-08-19T12:53:30;9.20;;;7.70;;
7142;SDS011;3613;48.902;9.204;2022-08-19T12:56:01;9.53;;;8.00;;
7142;SDS011;3613;48.902;9.204;2022-08-19T12:58:29;9.83;;;7.13;;
7142;SDS011;3613;48.902;9.204;2022-08-19T13:00:56;8.17;;;7.37;;
7142;SDS011;3613;48.902;9.204;2022-08-19T13:03:21;8.53;;;7.30;;
7142;SDS011;3613;48.902;9.204;2022-08-19T13:05:52;7.50;;;6.73;;
7142;SDS011;3613;48.902;9.204;2022-08-19T13:08:17;7.27;;;6.57;;
7142;SDS011;3613;48.902;9.204;2022-08-19T13:10:45;7.20;;;6.50;;
7142;SDS011;3613;48.902;9.204;2022-08-19T13:13:11;8.83;;;6.80;;
7142;SDS011;3613;48.902;9.204;2022-08-19T13:15:39;8.00;;;6.87;;
7142;SDS011;3613;48.902;9.204;2022-08-19T13:18:11;8.03;;;7.23;;
7142;SDS011;3613;48.902;9.204;2022-08-19T13:20:39;7.27;;;6.60;;
7142;SDS011;3613;48.902;9.204;2022-08-19T13:23:08;9.60;;;7.07;;
7142;SDS011;3613;48.902;9.204;2022-08-19T13:25:34;7.67;;;6.43;;
7142;SDS011;3613;48.902;9.204;2022-08-19T13:28:01;9.80;;;7.40;;
7142;SDS011;3613;48.902;9.204;2022-08-19T13:30:27;9.50;;;7.43;;
7142;SDS011;3613;48.902;9.204;2022-08-19T13:33:28;8.30;;;6.77;;
7142;SDS011;3613;48.902;9.204;2022-08-19T13:35:58;10.67;;;7.17;;
7142;SDS011;3613;48.902;9.204;2022-08-19T13:38:25;10.73;;;7.50;;
7142;SDS011;3613;48.902;9.204;2022-08-19T13:40:53;15.23;;;7.63;;
7142;SDS011;3613;48.902;9.204;2022-08-19T13:43:20;7.43;;;6.47;;
7142;SDS011;3613;48.902;9.204;2022-08-19T13:45:48;10.73;;;7.30;;
7142;SDS011;3613;48.902;9.204;2022-08-19T13:48:23;8.50;;;7.17;;
7142;SDS011;3613;48.902;9.204;2022-08-19T13:50:51;9.07;;;7.23;;
7142;SDS011;3613;48.902;9.204;2022-08-19T13:53:16;10.97;;;7.33;;
7142;SDS011;3613;48.902;9.204;2022-08-19T13:55:43;8.07;;;7.20;;
7142;SDS011;3613;48.902;9.204;2022-08-19T13:58:11;10.80;;;9.70;;
7142;SDS011;3613;48.902;9.204;2022-08-19T14:00:39;12.27;;;10.13;;
7142;SDS011;3613;48.902;9.204;2022-08-19T14:03:08;12.97;;;11.40;;
7142;SDS011;3613;48.902;9.204;2022-08-19T14:05:35;14.77;;;10.33;;
7142;SDS011;3613;48.902;9.204;2022-08-19T14:08:02;18.13;;;12.67;;
7142;SDS011;3613;48.902;9.204;2022-08-19T14:10:30;17.40;;;13.00;;
7142;SDS011;3613;48.902;9.204;2022-08-19T14:12:59;18.50;;;13.60;;
7142;SDS011;3613;48.902;9.204;2022-08-19T14:15:27;18.40;;;14.77;;
7142;SDS011;3613;48.902;9.204;2022-08-19T14:17:56;20.10;;;15.13;;
7142;SDS011;3613;48.902;9.204;2022-08-19T14:20:22;17.83;;;15.13;;
7142;SDS011;3613;48.902;9.204;2022-08-19T14:22:51;19.20;;;15.17;;
7142;SDS011;3613;48.902;9.204;2022-08-19T14:25:23;20.83;;;16.13;;
7142;SDS011;3613;48.902;9.204;2022-08-19T14:27:51;22.67;;;16.60;;
7142;SDS011;3613;48.902;9.204;2022-08-19T14:30:20;21.67;;;15.50;;
7142;SDS011;3613;48.902;9.204;2022-08-19T14:32:47;23.37;;;17.23;;
7142;SDS011;3613;48.902;9.204;2022-08-19T14:35:13;19.40;;;15.80;;
7142;SDS011;3613;48.902;9.204;2022-08-19T14:37:41;22.73;;;17.30;;
7142;SDS011;3613;48.902;9.204;2022-08-19T14:40:10;21.63;;;17.37;;
7142;SDS011;3613;48.902;9.204;2022-08-19T14:42:37;22.63;;;17.77;;
7142;SDS011;3613;48.902;9.204;2022-08-19T14:45:03;24.80;;;19.00;;
7142;SDS011;3613;48.902;9.204;2022-08-19T14:47:30;21.77;;;18.00;;
7142;SDS011;3613;48.902;9.204;2022-08-19T14:49:56;26.03;;;18.63;;
7142;SDS011;3613;48.902;9.204;2022-08-19T14:52:21;24.57;;;18.70;;
7142;SDS011;3613;48.902;9.204;2022-08-19T14:54:50;24.40;;;18.47;;
7142;SDS011;3613;48.902;9.204;2022-08-19T14:57:16;26.23;;;20.60;;
7142;SDS011;3613;48.902;9.204;2022-08-19T14:59:45;23.83;;;19.13;;
7142;SDS011;3613;48.902;9.204;2022-08-19T15:02:10;24.97;;;18.33;;
7142;SDS011;3613;48.902;9.204;2022-08-19T15:04:36;23.67;;;19.13;;
7142;SDS011;3613;48.902;9.204;2022-08-19T15:07:05;22.87;;;18.30;;
7142;SDS011;3613;48.902;9.204;2022-08-19T15:09:33;22.70;;;18.30;;
7142;SDS011;3613;48.902;9.204;2022-08-19T15:11:59;25.57;;;19.07;;
7142;SDS011;3613;48.902;9.204;2022-08-19T15:14:28;27.80;;;20.00;;
7142;SDS011;3613;48.902;9.204;2022-08-19T15:17:05;27.03;;;21.20;;
7142;SDS011;3613;48.902;9.204;2022-08-19T15:19:31;27.17;;;20.83;;